Terminal Aerodrome Forecast
Issued by NWS

Home | Current Version | Previous Version | Text Only | Print | Product List | Glossary On
Versions: 1 2 3 4 5 6 7 8 9 10 11 12 13 14 15 16 17 18 19 20 21 22 23 24 25 26 27
000
FTUS44 KOUN 251726
TAFLAW
TAF
KLAW 251726Z 2518/2618 16013KT P6SM -RA SCT025 OVC050
      TEMPO 2518/2522 VRB45KT 1SM +TSRA SCT008 OVC015CB
     FM252300 16009KT P6SM FEW010 BKN100
     FM260900 18007KT 4SM BR BKN015
     FM261500 17009KT P6SM BKN030=

USA.gov is the U.S. government's official web portal to all federal, state and local government web resources and services.